There are multiple Weather-warnings   Click here for more information


Meteo18 Weather Cam more information Meteo18 Weather Cam


Thunder radar more information blitzortung!


warning for Snow/Ice more information rain snow radar


Visit our other weather sites:

Template documentation
and downloads

And another site



Weather Underground History page Text

Daily Summary for December 12, 2017 Units:  English    Metric   Both
« Previous Day
Next Day »
Daily Weekly Monthly Yearly Custom
  High: Low: Average:
Temperature: TemperatureC °F -0.4 °F 2.5 °F
Dew Point: DewpointC °F -1.1 °F 0.8 °F
Humidity: Humidity % 79 % 88 %
Wind Speed: WindSpeedKMH mph 0.0 mph 4.2 mph
Wind Gust: WindSpeedGustKMH mph - -
Wind:- - WSW
Pressure: PressurehPa in 999.9 in -
Precipitation: 0.0 in    
Historical Graphs
 
 
Tabular Data for December 12, 2017
Time Temperature Dew Point Pressure Wind Wind Speed Wind Gust Humidity Rainfall Rate (Hourly)
TemperatureC °F DewpointC °F PressurehPa in Calm     Humidity % HourlyPrecipMM in
00:07 3.3 °F 1.5 °F 999.9 in Calm   24.1 mph 88 % 0.0 in
00:12 3.3 °F 1.5 °F 999.9 in West 1.6 mph 14.5 mph 88 % 0.0 in
00:17 3.3 °F 1.5 °F 1000.2 in WNW 3.2 mph 14.5 mph 88 % 0.0 in
00:22 3.4 °F 1.8 °F 1000.2 in WNW 4.8 mph 11.3 mph 89 % 0.0 in
00:37 3.7 °F 1.7 °F 1000.6 in WNW 8.0 mph 12.9 mph 87 % 0.0 in
00:47 3.8 °F 1.7 °F 1000.9 in NW 14.5 mph 20.9 mph 86 % 0.0 in
00:52 3.8 °F 1.7 °F 1000.9 in WSW 8.0 mph 20.9 mph 86 % 0.0 in
00:57 3.8 °F 1.7 °F 1000.9 in WNW 9.7 mph 20.9 mph 86 % 0.0 in
01:12 3.7 °F 1.6 °F 1001.2 in NW 11.3 mph 20.9 mph 86 % 0.0 in
01:22 3.7 °F 1.6 °F 1001.6 in West 4.8 mph 19.3 mph 86 % 0.0 in
01:27 3.6 °F 1.6 °F 1001.6 in West 4.8 mph 19.3 mph 87 % 0.0 in
01:32 3.7 °F 1.6 °F 1001.6 in Calm   20.9 mph 86 % 0.0 in
01:42 3.5 °F 1.5 °F 1001.9 in WNW 1.6 mph 20.9 mph 87 % 0.0 in
01:47 3.4 °F 1.4 °F 1001.9 in WNW 3.2 mph 14.5 mph 87 % 0.0 in
01:52 3.4 °F 1.4 °F 1001.9 in WNW 3.2 mph 16.1 mph 87 % 0.0 in
01:57 3.3 °F 1.3 °F 1001.9 in West 3.2 mph 16.1 mph 87 % 0.0 in
02:02 3.3 °F 1.3 °F 1002.3 in West 1.6 mph 16.1 mph 87 % 0.0 in
02:17 3.2 °F 1.2 °F 1002.6 in WNW 3.2 mph 9.7 mph 87 % 0.0 in
02:27 3.1 °F 1.3 °F 1002.6 in WNW 1.6 mph 8.0 mph 88 % 0.0 in
02:32 3.1 °F 1.3 °F 1002.9 in West 4.8 mph 8.0 mph 88 % 0.0 in
02:42 2.9 °F 1.1 °F 1002.9 in West 1.6 mph 8.0 mph 88 % 0.0 in
02:52 2.8 °F 1.2 °F 1003.3 in WNW 3.2 mph 6.4 mph 89 % 0.0 in
02:57 2.8 °F 1.2 °F 1003.3 in West 1.6 mph 6.4 mph 89 % 0.0 in
03:02 2.8 °F 1.2 °F 1003.6 in Calm   6.4 mph 89 % 0.0 in
03:07 2.8 °F 1.2 °F 1003.9 in Calm   4.8 mph 89 % 0.0 in
03:12 2.9 °F 1.3 °F 1003.9 in Calm   4.8 mph 89 % 0.0 in
03:17 2.9 °F 1.3 °F 1003.9 in Calm   3.2 mph 89 % 0.0 in
03:22 2.9 °F 1.3 °F 1004.3 in SW 1.6 mph 3.2 mph 89 % 0.0 in
03:27 2.9 °F 1.3 °F 1004.3 in WSW 1.6 mph 6.4 mph 89 % 0.0 in
03:32 2.9 °F 1.3 °F 1004.6 in WSW 3.2 mph 6.4 mph 89 % 0.0 in
03:37 2.9 °F 1.3 °F 1004.6 in WSW 1.6 mph 4.8 mph 89 % 0.0 in
03:42 2.9 °F 1.3 °F 1005.0 in WSW 1.6 mph 6.4 mph 89 % 0.0 in
03:52 3.0 °F 1.4 °F 1005.0 in WSW 1.6 mph 8.0 mph 89 % 0.0 in
03:57 3.0 °F 1.4 °F 1005.3 in WSW 3.2 mph 8.0 mph 89 % 0.0 in
04:07 2.9 °F 1.3 °F 1005.3 in West 3.2 mph 9.7 mph 89 % 0.0 in
04:17 2.8 °F 1.3 °F 1005.6 in West 8.0 mph 8.0 mph 90 % 0.0 in
04:22 2.8 °F 1.2 °F 1005.6 in WSW 8.0 mph 8.0 mph 89 % 0.0 in
04:27 2.8 °F 1.2 °F 1005.6 in WNW 6.4 mph 9.7 mph 89 % 0.0 in
04:42 2.6 °F 1.0 °F 1006.3 in WNW 4.8 mph 9.7 mph 89 % 0.0 in
04:47 2.6 °F 1.0 °F 1006.3 in WNW 3.2 mph 9.7 mph 89 % 0.0 in
04:52 2.5 °F 1.0 °F 1006.3 in West 3.2 mph 9.7 mph 90 % 0.0 in
04:57 2.5 °F 1.0 °F 1006.3 in WNW 6.4 mph 9.7 mph 90 % 0.0 in
05:02 2.5 °F 1.0 °F 1006.7 in West 4.8 mph 8.0 mph 90 % 0.0 in
05:12 2.3 °F 0.8 °F 1007.0 in West 1.6 mph 8.0 mph 90 % 0.0 in
05:37 2.2 °F 0.9 °F 1007.3 in West 8.0 mph 8.0 mph 91 % 0.0 in
05:42 2.1 °F 0.8 °F 1007.3 in WNW 8.0 mph 9.7 mph 91 % 0.0 in
05:47 2.1 °F 0.8 °F 1007.7 in WNW 6.4 mph 11.3 mph 91 % 0.0 in
05:52 1.9 °F 0.6 °F 1008.0 in NW 3.2 mph 11.3 mph 91 % 0.0 in
05:57 1.9 °F 0.6 °F 1007.7 in WNW 4.8 mph 11.3 mph 91 % 0.0 in
06:02 1.9 °F 0.6 °F 1008.0 in West 4.8 mph 11.3 mph 91 % 0.0 in
06:17 1.7 °F 0.4 °F 1008.4 in West 4.8 mph 9.7 mph 91 % 0.0 in
06:22 1.7 °F 0.5 °F 1008.7 in WNW 9.7 mph 11.3 mph 92 % 0.0 in
06:27 1.7 °F 0.5 °F 1008.7 in West 1.6 mph 11.3 mph 92 % 0.0 in
06:37 1.6 °F 0.4 °F 1009.4 in WNW 6.4 mph 11.3 mph 92 % 0.0 in
06:52 1.4 °F 0.2 °F 1009.7 in NW 4.8 mph 14.5 mph 92 % 0.0 in
06:57 1.3 °F 0.1 °F 1009.7 in West 1.6 mph 14.5 mph 92 % 0.0 in
07:02 1.3 °F 0.1 °F 1010.0 in WSW 1.6 mph 11.3 mph 92 % 0.0 in
07:12 1.2 °F 0.2 °F 1010.0 in Calm   8.0 mph 93 % 0.0 in
07:17 1.2 °F 0.2 °F 1010.0 in WNW 1.6 mph 8.0 mph 93 % 0.0 in
07:27 1.2 °F 0.2 °F 1010.4 in Calm   4.8 mph 93 % 0.0 in
07:32 1.1 °F 0.1 °F 1010.4 in West 1.6 mph 4.8 mph 93 % 0.0 in
07:42 0.9 °F -0.1 °F 1010.7 in SW 1.6 mph 3.2 mph 93 % 0.0 in
07:47 0.8 °F -0.2 °F 1011.1 in SW 1.6 mph 3.2 mph 93 % 0.0 in
07:57 0.8 °F -0.2 °F 1011.1 in Calm   3.2 mph 93 % 0.0 in
08:02 0.7 °F -0.3 °F 1011.1 in West 1.6 mph 3.2 mph 93 % 0.0 in
08:07 0.7 °F -0.3 °F 1011.1 in WSW 3.2 mph 3.2 mph 93 % 0.0 in
08:12 0.7 °F -0.3 °F 1011.4 in West 3.2 mph 3.2 mph 93 % 0.0 in
08:17 0.6 °F -0.3 °F 1011.4 in WSW 1.6 mph 4.8 mph 94 % 0.0 in
08:27 0.5 °F -0.4 °F 1011.4 in Calm   4.8 mph 94 % 0.0 in
08:32 0.4 °F -0.5 °F 1011.4 in Calm   4.8 mph 94 % 0.0 in
08:37 0.3 °F -0.6 °F 1011.4 in Calm   4.8 mph 94 % 0.0 in
08:57 0.0 °F -0.8 °F 1011.7 in Calm   1.6 mph 94 % 0.0 in
09:02 0.1 °F -0.6 °F 1012.1 in Calm   1.6 mph 95 % 0.0 in
09:07 0.1 °F -0.6 °F 1012.1 in SW 1.6 mph 1.6 mph 95 % 0.0 in
09:12 0.2 °F -0.5 °F 1012.1 in Calm   4.8 mph 95 % 0.0 in
09:17 0.3 °F -0.4 °F 1012.1 in SSW 1.6 mph 4.8 mph 95 % 0.0 in
09:27 0.2 °F -0.7 °F 1012.4 in Calm   4.8 mph 94 % 0.0 in
09:32 0.0 °F -0.8 °F 1012.4 in Calm   3.2 mph 94 % 0.0 in
09:37 -0.1 °F -0.8 °F 1012.8 in South 1.6 mph 4.8 mph 95 % 0.0 in
09:42 -0.1 °F -0.8 °F 1012.8 in South 4.8 mph 4.8 mph 95 % 0.0 in
09:47 -0.2 °F -0.9 °F 1012.8 in SW 3.2 mph 6.4 mph 95 % 0.0 in
09:57 -0.2 °F -0.9 °F 1012.8 in SW 1.6 mph 6.4 mph 95 % 0.0 in
10:02 -0.2 °F -0.9 °F 1013.1 in Calm   6.4 mph 95 % 0.0 in
10:07 -0.2 °F -0.9 °F 1013.4 in Calm   4.8 mph 95 % 0.0 in
10:12 -0.2 °F -0.9 °F 1013.4 in SW 3.2 mph 4.8 mph 95 % 0.0 in
10:17 -0.2 °F -0.9 °F 1013.4 in South 3.2 mph 4.8 mph 95 % 0.0 in
10:27 -0.4 °F -1.1 °F 1013.8 in SW 3.2 mph 6.4 mph 95 % 0.0 in
10:42 -0.3 °F -0.9 °F 1014.1 in SSW 4.8 mph 8.0 mph 96 % 0.0 in
10:52 -0.2 °F -0.8 °F 1014.4 in South 3.2 mph 6.4 mph 96 % 0.0 in
10:57 -0.2 °F -0.8 °F 1014.4 in South 3.2 mph 8.0 mph 96 % 0.0 in
11:17 -0.1 °F -0.7 °F 1014.4 in SSW 4.8 mph 9.7 mph 96 % 0.0 in
11:37 0.0 °F -0.6 °F 1014.8 in SSW 4.8 mph 12.9 mph 96 % 0.0 in
11:47 0.3 °F -0.1 °F 1014.4 in SSW 8.0 mph 11.3 mph 97 % 0.0 in
11:52 0.4 °F 0.0 °F 1014.4 in South 6.4 mph 11.3 mph 97 % 0.0 in
12:02 0.6 °F 0.2 °F 1014.4 in SW 12.9 mph 12.9 mph 97 % 0.0 in
12:12 1.0 °F 0.6 °F 1014.4 in SSW 9.7 mph 14.5 mph 97 % 0.0 in
12:17 1.0 °F 0.6 °F 1014.4 in SW 11.3 mph 12.9 mph 97 % 0.0 in
12:22 0.8 °F 0.4 °F 1014.4 in WSW 9.7 mph 16.1 mph 97 % 0.0 in
12:27 0.9 °F 0.5 °F 1014.4 in SW 6.4 mph 16.1 mph 97 % 0.0 in
12:37 1.2 °F 0.8 °F 1014.8 in SSW 11.3 mph 19.3 mph 97 % 0.0 in
12:42 1.4 °F 1.0 °F 1014.8 in SW 9.7 mph 14.5 mph 97 % 0.0 in
12:47 1.8 °F 1.4 °F 1014.8 in SW 4.8 mph 14.5 mph 97 % 0.0 in
13:02 2.3 °F 1.9 °F 1014.8 in SW 4.8 mph 14.5 mph 97 % 0.0 in
13:12 2.5 °F 1.9 °F 1014.8 in WSW 11.3 mph 11.3 mph 96 % 0.0 in
13:17 2.7 °F 2.0 °F 1014.8 in West 9.7 mph 14.5 mph 95 % 0.0 in
13:22 2.7 °F 1.7 °F 1015.1 in WSW 11.3 mph 14.5 mph 93 % 0.0 in
13:32 3.0 °F 1.7 °F 1015.1 in SW 9.7 mph 12.9 mph 91 % 0.0 in
13:37 3.3 °F 1.8 °F 1014.8 in South 4.8 mph 16.1 mph 90 % 0.0 in
13:47 3.7 °F 1.7 °F 1014.8 in SSW 6.4 mph 19.3 mph 87 % 0.0 in
13:57 4.0 °F 1.9 °F 1015.1 in WSW 8.0 mph 19.3 mph 86 % 0.0 in
14:12 4.4 °F 2.3 °F 1015.1 in SW 4.8 mph 16.1 mph 86 % 0.0 in
14:22 4.4 °F 1.9 °F 1015.1 in SW 11.3 mph 16.1 mph 84 % 0.0 in
14:32 4.6 °F 1.8 °F 1015.1 in WSW 4.8 mph 22.5 mph 82 % 0.0 in
14:37 4.7 °F 1.9 °F 1015.1 in SW 9.7 mph 22.5 mph 82 % 0.0 in
14:42 4.9 °F 1.9 °F 1015.1 in WSW 8.0 mph 16.1 mph 81 % 0.0 in
14:47 4.9 °F 1.7 °F 1015.1 in SW 9.7 mph 16.1 mph 80 % 0.0 in
14:52 4.8 °F 1.6 °F 1015.1 in SW 8.0 mph 19.3 mph 80 % 0.0 in
15:02 4.6 °F 1.4 °F 1015.1 in SW 6.4 mph 17.7 mph 80 % 0.0 in
15:32 4.7 °F 1.5 °F 1015.8 in WSW 11.3 mph 12.9 mph 80 % 0.0 in
15:42 4.7 °F 1.5 °F 1015.8 in WSW 1.6 mph 12.9 mph 80 % 0.0 in
15:47 4.7 °F 1.5 °F 1015.8 in SW 4.8 mph 12.9 mph 80 % 0.0 in
15:52 4.8 °F 1.5 °F 1015.8 in WSW 3.2 mph 9.7 mph 79 % 0.0 in
15:57 4.8 °F 1.6 °F 1015.8 in SSW 1.6 mph 11.3 mph 80 % 0.0 in
16:07 4.8 °F 1.8 °F 1016.1 in SW 11.3 mph 12.9 mph 81 % 0.0 in
16:17 4.7 °F 1.7 °F 1016.1 in SW 8.0 mph 16.1 mph 81 % 0.0 in
16:27 4.7 °F 1.4 °F 1016.1 in SW 12.9 mph 14.5 mph 79 % 0.0 in
16:32 4.8 °F 1.5 °F 1016.5 in SSW 12.9 mph 19.3 mph 79 % 0.0 in
16:37 4.7 °F 1.4 °F 1016.5 in SW 8.0 mph 19.3 mph 79 % 0.0 in
16:47 4.7 °F 1.4 °F 1016.8 in SW 4.8 mph 19.3 mph 79 % 0.0 in
16:52 4.6 °F 1.4 °F 1016.8 in SW 4.8 mph 19.3 mph 80 % 0.0 in
17:02 4.3 °F 1.5 °F 1016.8 in SW 4.8 mph 9.7 mph 82 % 0.0 in
17:12 4.0 °F 1.5 °F 1016.8 in SW 6.4 mph 8.0 mph 84 % 0.0 in
17:22 3.9 °F 1.6 °F 1017.2 in SSW 4.8 mph 9.7 mph 85 % 0.0 in
17:27 4.1 °F 1.6 °F 1017.2 in SW 1.6 mph 8.0 mph 84 % 0.0 in
17:32 4.2 °F 1.6 °F 1017.2 in SW 3.2 mph 8.0 mph 83 % 0.0 in
17:37 4.2 °F 1.6 °F 1017.2 in SSW 3.2 mph 8.0 mph 83 % 0.0 in
17:42 4.2 °F 1.6 °F 1017.2 in SSW 3.2 mph 8.0 mph 83 % 0.0 in
17:47 4.1 °F 1.6 °F 1017.2 in SSW 3.2 mph 6.4 mph 84 % 0.0 in
17:52 3.9 °F 1.8 °F 1017.2 in SSW 1.6 mph 4.8 mph 86 % 0.0 in
18:02 3.7 °F 1.7 °F 1017.5 in SSW 3.2 mph 4.8 mph 87 % 0.0 in
18:12 3.7 °F 1.7 °F 1017.5 in SSW 4.8 mph 8.0 mph 87 % 0.0 in
18:27 3.7 °F 1.6 °F 1017.8 in SW 4.8 mph 9.7 mph 86 % 0.0 in
18:32 3.6 °F 1.5 °F 1017.5 in SSW 3.2 mph 9.7 mph 86 % 0.0 in
18:37 3.5 °F 1.4 °F 1017.5 in SSW 4.8 mph 9.7 mph 86 % 0.0 in
18:52 3.2 °F 1.1 °F 1017.8 in SW 3.2 mph 6.4 mph 86 % 0.0 in
18:57 3.1 °F 0.8 °F 1017.8 in SW 3.2 mph 6.4 mph 85 % 0.0 in
19:02 3.1 °F 0.8 °F 1017.8 in SW 4.8 mph 6.4 mph 85 % 0.0 in
19:07 2.9 °F 0.6 °F 1017.8 in SW 4.8 mph 6.4 mph 85 % 0.0 in
19:12 2.9 °F 0.6 °F 1017.8 in SSW 3.2 mph 6.4 mph 85 % 0.0 in
19:22 2.8 °F 0.5 °F 1017.8 in SW 3.2 mph 4.8 mph 85 % 0.0 in
19:32 2.8 °F 0.5 °F 1017.8 in SSW 1.6 mph 4.8 mph 85 % 0.0 in
19:37 2.7 °F 0.4 °F 1017.8 in SSW 3.2 mph 4.8 mph 85 % 0.0 in
19:42 2.7 °F 0.4 °F 1017.8 in SW 3.2 mph 4.8 mph 85 % 0.0 in
19:47 2.6 °F 0.3 °F 1018.2 in SSW 3.2 mph 4.8 mph 85 % 0.0 in
19:52 2.6 °F 0.5 °F 1018.2 in SSW 1.6 mph 4.8 mph 86 % 0.0 in
19:57 2.6 °F 0.5 °F 1018.2 in SSW 3.2 mph 4.8 mph 86 % 0.0 in
20:02 2.7 °F 0.6 °F 1018.2 in SSW 3.2 mph 6.4 mph 86 % 0.0 in
20:22 2.7 °F 0.8 °F 1018.5 in SW 3.2 mph 6.4 mph 87 % 0.0 in
20:32 2.8 °F 0.7 °F 1018.5 in SSW 1.6 mph 4.8 mph 86 % 0.0 in
20:42 2.8 °F 0.7 °F 1018.5 in SSW 3.2 mph 4.8 mph 86 % 0.0 in
20:47 2.8 °F 0.7 °F 1018.5 in SSW 3.2 mph 4.8 mph 86 % 0.0 in
20:52 2.7 °F 0.6 °F 1018.5 in SW 4.8 mph 4.8 mph 86 % 0.0 in
20:57 2.8 °F 0.7 °F 1018.8 in SW 3.2 mph 6.4 mph 86 % 0.0 in
21:07 2.9 °F 0.8 °F 1018.8 in West 3.2 mph 6.4 mph 86 % 0.0 in
21:12 2.9 °F 0.6 °F 1018.8 in WSW 1.6 mph 6.4 mph 85 % 0.0 in
21:22 3.1 °F 0.8 °F 1018.8 in SW 1.6 mph 4.8 mph 85 % 0.0 in
21:32 2.9 °F 0.6 °F 1018.8 in SSW 1.6 mph 4.8 mph 85 % 0.0 in
22:02 2.3 °F 0.7 °F 1018.8 in SSW 6.4 mph 8.0 mph 89 % 0.0 in
22:17 2.7 °F 0.9 °F 1018.8 in SW 4.8 mph 9.7 mph 88 % 0.0 in
22:22 2.9 °F 1.0 °F 1018.8 in SW 3.2 mph 9.7 mph 87 % 0.0 in
22:27 3.1 °F 1.0 °F 1018.8 in SW 6.4 mph 9.7 mph 86 % 0.0 in
22:42 3.1 °F 1.0 °F 1018.8 in SSW 4.8 mph 9.7 mph 86 % 0.0 in
22:47 3.0 °F 0.9 °F 1018.8 in SSW 3.2 mph 9.7 mph 86 % 0.0 in
22:52 2.9 °F 1.0 °F 1018.8 in SSW 3.2 mph 6.4 mph 87 % 0.0 in
23:02 2.7 °F 0.9 °F 1018.8 in SSW 4.8 mph 4.8 mph 88 % 0.0 in
23:07 2.7 °F 0.9 °F 1019.2 in SW 4.8 mph 4.8 mph 88 % 0.0 in
23:12 2.8 °F 1.0 °F 1019.2 in SSW 3.2 mph 6.4 mph 88 % 0.0 in
23:17 2.9 °F 1.0 °F 1019.2 in SSW 3.2 mph 6.4 mph 87 % 0.0 in
23:27 2.9 °F 1.0 °F 1019.2 in Calm   6.4 mph 87 % 0.0 in
23:32 2.9 °F 1.0 °F 1019.2 in South 1.6 mph 6.4 mph 87 % 0.0 in
23:37 2.8 °F 0.9 °F 1019.2 in Calm   4.8 mph 87 % 0.0 in
23:52 2.7 °F 0.9 °F 1019.2 in SSE 1.6 mph 4.8 mph 88 % 0.0 in
23:57 2.7 °F 0.9 °F 1018.8 in SSE 1.6 mph 4.8 mph 88 % 0.0 in
Meteo18
Compliments of Weather Underground - 4 mb

Script developed by  Jim McMurry - jmcmurry@mwt.net Adapted for the template by  Wim van der Kuil - Leuven-Template.eu

You find our weather info also at:

European Weather Network

Weather Underground

Equipment we use:

Weather-station
Davis Vue

Weather-program
Meteobridge

Weather-server
Raspberry PI 2 B+

Provider
1 and 1

Davis Vue

Meteobridge

Raspberry PI 2 B+

1 and 1